createdAt,value
2017-12-30T00:00:44.883Z,0.19
2017-12-30T00:01:44.806Z,0.23
2017-12-30T00:03:36.662Z,0.20
2017-12-30T00:04:36.566Z,0.22
2017-12-30T00:06:28.368Z,0.25
2017-12-30T00:07:28.263Z,0.25
2017-12-30T00:09:19.979Z,0.23
2017-12-30T00:10:19.905Z,0.31
2017-12-30T00:12:11.659Z,0.22
2017-12-30T00:13:11.576Z,0.19
2017-12-30T00:15:03.490Z,0.23
2017-12-30T00:16:03.409Z,0.23
2017-12-30T00:17:55.171Z,0.17
2017-12-30T00:18:55.132Z,0.13
2017-12-30T00:20:46.896Z,0.23
2017-12-30T00:21:46.763Z,0.20
2017-12-30T00:23:38.515Z,0.22
2017-12-30T00:24:38.460Z,0.19
2017-12-30T00:26:30.331Z,0.22
2017-12-30T00:27:30.161Z,0.19
2017-12-30T00:29:21.958Z,0.20
2017-12-30T00:30:21.886Z,0.13
2017-12-30T00:32:13.787Z,0.20
2017-12-30T00:33:13.688Z,0.23
2017-12-30T00:35:05.416Z,0.31
2017-12-30T00:36:05.355Z,0.23
2017-12-30T00:37:57.153Z,0.23
2017-12-30T00:38:57.033Z,0.23
2017-12-30T00:40:48.805Z,0.23
2017-12-30T00:41:48.708Z,0.19
2017-12-30T00:43:40.548Z,0.19
2017-12-30T00:44:40.422Z,0.17
2017-12-30T00:46:32.240Z,0.13
2017-12-30T00:47:32.137Z,0.25
2017-12-30T00:49:23.921Z,0.13
2017-12-30T00:50:23.810Z,0.17
2017-12-30T00:52:15.631Z,0.13
2017-12-30T00:53:15.500Z,0.17
2017-12-30T00:55:07.241Z,0.26
2017-12-30T00:56:07.167Z,0.17
2017-12-30T00:57:59.039Z,0.19
2017-12-30T00:58:58.952Z,0.20
2017-12-30T01:00:50.754Z,0.16
2017-12-30T01:01:50.704Z,0.17
2017-12-30T01:03:42.506Z,0.22
2017-12-30T01:04:42.378Z,0.17
2017-12-30T01:06:34.191Z,0.15
2017-12-30T01:07:34.121Z,0.17
2017-12-30T01:09:25.861Z,0.22
2017-12-30T01:10:25.803Z,0.12
2017-12-30T01:12:17.554Z,0.16
2017-12-30T01:13:17.477Z,0.13
2017-12-30T01:15:09.224Z,0.19
2017-12-30T01:16:09.144Z,0.20
2017-12-30T01:18:00.901Z,0.19
2017-12-30T01:19:00.822Z,0.16
2017-12-30T01:20:52.552Z,0.16
2017-12-30T01:21:52.487Z,0.16
2017-12-30T01:23:44.435Z,0.17
2017-12-30T01:24:44.228Z,0.22
2017-12-30T01:26:36.093Z,0.15
2017-12-30T01:27:35.903Z,0.16
2017-12-30T01:29:27.699Z,0.33
2017-12-30T01:30:27.577Z,0.17
2017-12-30T01:32:19.317Z,0.20
2017-12-30T01:33:19.254Z,0.25
2017-12-30T01:35:10.994Z,0.23
2017-12-30T01:36:10.932Z,0.25
2017-12-30T01:38:02.668Z,0.26
2017-12-30T01:39:02.604Z,0.26
2017-12-30T01:40:54.344Z,0.35
2017-12-30T01:41:54.260Z,0.38
2017-12-30T01:43:46.075Z,0.41
2017-12-30T01:44:46.025Z,0.43
2017-12-30T01:46:37.927Z,0.41
2017-12-30T01:47:37.893Z,0.41
2017-12-30T01:49:29.627Z,0.43
2017-12-30T01:50:29.539Z,0.48
2017-12-30T01:52:21.455Z,0.49
2017-12-30T01:53:21.247Z,0.40
2017-12-30T01:55:13.045Z,0.56
2017-12-30T01:56:12.980Z,0.48
2017-12-30T01:58:04.753Z,0.49
2017-12-30T01:59:04.688Z,0.44
2017-12-30T02:00:56.490Z,0.48
2017-12-30T02:01:56.413Z,0.43
2017-12-30T02:03:48.201Z,0.45
2017-12-30T02:04:48.147Z,0.48
2017-12-30T02:06:40.069Z,0.51
2017-12-30T02:07:39.988Z,0.44
2017-12-30T02:09:31.768Z,0.44
2017-12-30T02:10:31.690Z,0.45
2017-12-30T02:12:23.531Z,0.44
2017-12-30T02:13:23.425Z,0.45
2017-12-30T02:15:15.231Z,0.37
2017-12-30T02:16:15.182Z,0.35
2017-12-30T02:18:07.094Z,0.37
2017-12-30T02:19:06.972Z,0.35
2017-12-30T02:20:58.758Z,0.43
2017-12-30T02:21:58.660Z,0.38
2017-12-30T02:23:50.393Z,0.51
2017-12-30T02:24:50.329Z,0.53
2017-12-30T02:26:42.150Z,0.51
2017-12-30T02:27:42.059Z,0.51
2017-12-30T02:29:33.850Z,0.59
2017-12-30T02:30:33.795Z,0.56
2017-12-30T02:32:25.532Z,0.59
2017-12-30T02:33:25.451Z,0.52
2017-12-30T02:35:17.232Z,0.60
2017-12-30T02:36:17.170Z,0.64
2017-12-30T02:38:08.951Z,0.70
2017-12-30T02:39:08.886Z,0.71
2017-12-30T02:41:00.619Z,0.74
2017-12-30T02:42:00.591Z,0.72
2017-12-30T02:43:52.311Z,0.71
2017-12-30T02:44:52.238Z,0.77
2017-12-30T02:46:44.042Z,0.77
2017-12-30T02:47:43.926Z,0.62
2017-12-30T02:49:35.672Z,0.70
2017-12-30T02:50:35.597Z,0.70
2017-12-30T02:52:27.354Z,0.77
2017-12-30T02:53:27.276Z,0.77
2017-12-30T02:55:19.176Z,0.74
2017-12-30T02:56:18.967Z,0.74
2017-12-30T02:58:10.731Z,0.67
2017-12-30T02:59:10.652Z,0.60
2017-12-30T03:01:02.424Z,0.75
2017-12-30T03:02:02.366Z,0.56
2017-12-30T03:03:54.151Z,0.70
2017-12-30T03:04:54.101Z,0.60
2017-12-30T03:06:45.964Z,0.52
2017-12-30T03:07:45.871Z,0.62
2017-12-30T03:09:37.703Z,0.53
2017-12-30T03:10:37.623Z,0.60
2017-12-30T03:12:29.370Z,0.48
2017-12-30T03:13:29.282Z,0.30
2017-12-30T03:15:21.149Z,0.31
2017-12-30T03:16:21.044Z,0.31
2017-12-30T03:18:12.842Z,0.28
2017-12-30T03:19:12.820Z,0.30
2017-12-30T03:21:04.559Z,0.28
2017-12-30T03:22:04.505Z,0.30
2017-12-30T03:23:56.423Z,0.35
2017-12-30T03:24:56.276Z,0.30
2017-12-30T03:26:48.071Z,0.22
2017-12-30T03:27:47.951Z,0.33
2017-12-30T03:29:39.750Z,0.34
2017-12-30T03:30:39.643Z,0.30
2017-12-30T03:32:31.460Z,0.30
2017-12-30T03:33:31.418Z,0.33
2017-12-30T03:35:23.372Z,0.43
2017-12-30T03:36:23.266Z,0.43
2017-12-30T03:38:15.188Z,0.52
2017-12-30T03:39:14.979Z,0.53
2017-12-30T03:41:06.807Z,0.59
2017-12-30T03:42:06.725Z,0.70
2017-12-30T03:43:58.576Z,0.81
2017-12-30T03:44:58.420Z,0.72
2017-12-30T03:46:50.211Z,0.78
2017-12-30T03:47:50.131Z,0.74
2017-12-30T03:49:42.033Z,0.77
2017-12-30T03:50:41.954Z,0.72
2017-12-30T03:52:33.887Z,0.86
2017-12-30T03:53:33.773Z,0.77
2017-12-30T03:55:25.693Z,0.81
2017-12-30T03:56:25.491Z,0.81
2017-12-30T03:58:17.291Z,0.81
2017-12-30T03:59:17.219Z,0.82
2017-12-30T04:01:09.100Z,0.88
2017-12-30T04:02:09.055Z,0.89
2017-12-30T04:04:00.952Z,0.95
2017-12-30T04:05:00.763Z,0.95
2017-12-30T04:06:52.558Z,0.90
2017-12-30T04:07:52.492Z,0.93
2017-12-30T04:09:44.285Z,0.99
2017-12-30T04:10:44.195Z,0.98
2017-12-30T04:12:36.186Z,0.96
2017-12-30T04:13:35.962Z,0.95
2017-12-30T04:15:27.666Z,0.98
2017-12-30T04:16:27.622Z,0.88
2017-12-30T04:18:19.344Z,0.90
2017-12-30T04:19:19.271Z,0.90
2017-12-30T04:21:11.079Z,0.90
2017-12-30T04:22:11.010Z,0.89
2017-12-30T04:24:02.805Z,0.98
2017-12-30T04:25:02.820Z,0.93
2017-12-30T04:26:54.575Z,0.99
2017-12-30T04:27:54.494Z,0.99
2017-12-30T04:29:46.262Z,0.99
2017-12-30T04:30:46.267Z,0.92
2017-12-30T04:32:38.047Z,1.00
2017-12-30T04:33:37.849Z,0.95
2017-12-30T04:35:29.770Z,0.99
2017-12-30T04:36:29.663Z,1.00
2017-12-30T04:38:21.352Z,1.04
2017-12-30T04:39:21.280Z,1.04
2017-12-30T04:41:13.105Z,1.00
2017-12-30T04:42:13.005Z,1.08
2017-12-30T04:44:04.805Z,1.07
2017-12-30T04:45:04.757Z,1.10
2017-12-30T04:46:56.494Z,1.08
2017-12-30T04:47:56.441Z,1.08
2017-12-30T04:49:48.357Z,1.10
2017-12-30T04:50:48.227Z,1.07
2017-12-30T04:52:40.024Z,1.08
2017-12-30T04:53:39.993Z,1.10
2017-12-30T04:55:31.824Z,1.16
2017-12-30T04:56:31.745Z,1.07
2017-12-30T04:58:23.593Z,1.13
2017-12-30T04:59:23.474Z,1.16
2017-12-30T05:01:15.175Z,1.26
2017-12-30T05:02:15.185Z,1.18
2017-12-30T05:04:06.917Z,1.13
2017-12-30T05:05:06.893Z,1.20
2017-12-30T05:06:58.729Z,1.14
2017-12-30T05:07:58.597Z,1.18
2017-12-30T05:09:50.451Z,1.26
2017-12-30T05:10:50.413Z,1.24
2017-12-30T05:12:42.320Z,1.25
2017-12-30T05:13:42.239Z,1.24
2017-12-30T05:15:34.002Z,1.18
2017-12-30T05:16:33.887Z,1.20
2017-12-30T05:18:25.855Z,1.34
2017-12-30T05:19:25.620Z,1.34
2017-12-30T05:21:17.997Z,1.36
2017-12-30T05:22:17.237Z,1.34
2017-12-30T05:24:09.148Z,1.24
2017-12-30T05:25:09.017Z,1.18
2017-12-30T05:27:00.770Z,1.26
2017-12-30T05:28:00.708Z,1.20
2017-12-30T05:29:52.537Z,1.21
2017-12-30T05:30:52.423Z,1.24
2017-12-30T05:32:44.295Z,1.08
2017-12-30T05:33:44.218Z,1.24
2017-12-30T05:35:36.002Z,1.21
2017-12-30T05:36:35.863Z,1.21
2017-12-30T05:38:27.671Z,1.34
2017-12-30T05:39:27.624Z,1.28
2017-12-30T05:41:19.415Z,1.36
2017-12-30T05:42:19.352Z,1.31
2017-12-30T05:44:11.106Z,1.25
2017-12-30T05:45:11.032Z,1.34
2017-12-30T05:47:02.814Z,1.31
2017-12-30T05:48:02.727Z,1.36
2017-12-30T05:49:54.644Z,1.38
2017-12-30T05:50:54.509Z,1.35
2017-12-30T05:52:46.335Z,1.34
2017-12-30T05:53:46.248Z,1.36
2017-12-30T05:55:38.150Z,1.35
2017-12-30T05:56:38.059Z,1.50
2017-12-30T05:58:29.838Z,1.47
2017-12-30T05:59:29.743Z,1.60
2017-12-30T06:01:21.482Z,1.50
2017-12-30T06:02:21.436Z,1.60
2017-12-30T06:04:13.365Z,1.53
2017-12-30T06:05:13.148Z,1.50
2017-12-30T06:07:04.932Z,1.56
2017-12-30T06:08:04.837Z,1.63
2017-12-30T06:09:56.673Z,1.60
2017-12-30T06:10:56.561Z,1.65
2017-12-30T06:12:48.511Z,1.70
2017-12-30T06:13:48.361Z,1.64
2017-12-30T06:15:40.282Z,1.75
2017-12-30T06:16:40.080Z,1.83
2017-12-30T06:18:32.035Z,1.83
2017-12-30T06:19:31.885Z,1.79
2017-12-30T06:21:23.701Z,1.85
2017-12-30T06:22:23.524Z,1.77
2017-12-30T06:24:15.434Z,1.89
2017-12-30T06:25:15.256Z,1.83
2017-12-30T06:27:07.051Z,1.85
2017-12-30T06:28:06.926Z,1.83
2017-12-30T06:29:58.658Z,1.89
2017-12-30T06:30:58.608Z,1.83
2017-12-30T06:32:52.015Z,1.89
2017-12-30T06:33:50.277Z,1.83
2017-12-30T06:35:42.111Z,1.85
2017-12-30T06:36:42.054Z,1.92
2017-12-30T06:38:33.903Z,1.89
2017-12-30T06:39:33.875Z,1.93
2017-12-30T06:41:25.705Z,1.98
2017-12-30T06:42:25.578Z,2.00
2017-12-30T06:44:17.308Z,1.98
2017-12-30T06:45:17.216Z,1.95
2017-12-30T06:47:08.999Z,1.95
2017-12-30T06:48:08.929Z,1.95
2017-12-30T06:50:02.365Z,2.07
2017-12-30T06:51:00.656Z,2.00
2017-12-30T06:52:52.546Z,2.07
2017-12-30T06:53:52.405Z,2.08
2017-12-30T06:55:44.198Z,2.05
2017-12-30T06:56:44.159Z,2.08
2017-12-30T06:58:35.971Z,2.11
2017-12-30T06:59:35.851Z,2.08
2017-12-30T07:01:27.669Z,2.07
2017-12-30T07:02:27.556Z,2.08
2017-12-30T07:04:19.301Z,2.18
2017-12-30T07:05:19.232Z,2.08
2017-12-30T07:07:11.051Z,2.11
2017-12-30T07:08:11.047Z,2.14
2017-12-30T07:10:02.726Z,2.23
2017-12-30T07:11:02.646Z,2.27
2017-12-30T07:12:54.637Z,2.27
2017-12-30T07:13:54.361Z,2.26
2017-12-30T07:15:46.179Z,2.33
2017-12-30T07:16:46.082Z,2.33
2017-12-30T07:18:37.916Z,2.30
2017-12-30T07:19:37.866Z,2.36
2017-12-30T07:21:29.620Z,2.33
2017-12-30T07:22:29.576Z,2.33
2017-12-30T07:24:21.299Z,2.36
2017-12-30T07:25:21.249Z,2.36
2017-12-30T07:27:12.969Z,2.30
2017-12-30T07:28:12.907Z,2.30
2017-12-30T07:30:04.665Z,2.36
2017-12-30T07:31:04.599Z,2.38
2017-12-30T07:32:56.359Z,2.45
2017-12-30T07:33:56.261Z,2.43
2017-12-30T07:35:47.995Z,2.50
2017-12-30T07:36:47.983Z,2.44
2017-12-30T07:38:39.801Z,2.55
2017-12-30T07:39:39.705Z,2.40
2017-12-30T07:41:31.564Z,2.47
2017-12-30T07:42:31.483Z,2.48
2017-12-30T07:44:23.200Z,2.43
2017-12-30T07:45:23.134Z,2.56
2017-12-30T07:47:14.942Z,2.48
2017-12-30T07:48:14.873Z,2.59
2017-12-30T07:50:06.698Z,2.56
2017-12-30T07:51:06.704Z,2.59
2017-12-30T07:52:58.570Z,2.59
2017-12-30T07:53:58.363Z,2.53
2017-12-30T07:55:50.192Z,2.58
2017-12-30T07:56:50.052Z,2.61
2017-12-30T07:58:41.976Z,2.62
2017-12-30T07:59:41.886Z,2.58
2017-12-30T08:01:33.571Z,2.61
2017-12-30T08:02:33.515Z,2.68
2017-12-30T08:04:25.393Z,2.68
2017-12-30T08:05:25.213Z,2.73
2017-12-30T08:07:17.075Z,2.69
2017-12-30T08:08:17.016Z,2.69
2017-12-30T08:10:08.948Z,2.71
2017-12-30T08:11:08.829Z,2.71
2017-12-30T08:13:00.590Z,2.71
2017-12-30T08:14:00.550Z,2.76
2017-12-30T08:15:52.355Z,2.71
2017-12-30T08:16:52.248Z,2.80
2017-12-30T08:18:44.032Z,2.79
2017-12-30T08:19:43.975Z,2.86
2017-12-30T08:21:35.773Z,2.83
2017-12-30T08:22:35.691Z,2.90
2017-12-30T08:24:27.532Z,2.86
2017-12-30T08:25:27.449Z,2.83
2017-12-30T08:27:19.320Z,2.89
2017-12-30T08:28:19.245Z,2.84
2017-12-30T08:30:11.048Z,2.98
2017-12-30T08:31:10.994Z,2.95
2017-12-30T08:33:02.804Z,2.89
2017-12-30T08:34:02.732Z,2.94
2017-12-30T08:35:54.543Z,2.98
2017-12-30T08:36:54.434Z,2.97
2017-12-30T08:38:46.233Z,2.99
2017-12-30T08:39:46.148Z,2.95
2017-12-30T08:41:37.991Z,3.04
2017-12-30T08:42:37.902Z,3.07
2017-12-30T08:44:29.731Z,3.08
2017-12-30T08:45:29.621Z,3.13
2017-12-30T08:47:21.415Z,3.17
2017-12-30T08:48:21.358Z,3.22
2017-12-30T08:50:13.228Z,3.22
2017-12-30T08:51:13.058Z,3.33
2017-12-30T08:53:04.865Z,3.39
2017-12-30T08:54:04.797Z,3.42
2017-12-30T08:55:56.666Z,3.44
2017-12-30T08:56:56.650Z,3.49
2017-12-30T08:58:48.380Z,3.49
2017-12-30T08:59:48.285Z,3.54
2017-12-30T09:01:40.170Z,3.54
2017-12-30T09:02:40.055Z,3.57
2017-12-30T09:04:31.802Z,3.60
2017-12-30T09:05:31.725Z,3.63
2017-12-30T09:07:23.551Z,3.71
2017-12-30T09:08:23.467Z,3.68
2017-12-30T09:10:15.240Z,3.63
2017-12-30T09:11:15.230Z,3.71
2017-12-30T09:13:07.593Z,3.82
2017-12-30T09:14:06.909Z,3.77
2017-12-30T09:15:58.677Z,3.77
2017-12-30T09:16:58.653Z,3.77
2017-12-30T09:18:50.394Z,3.78
2017-12-30T09:19:50.312Z,3.78
2017-12-30T09:21:42.165Z,3.80
2017-12-30T09:22:42.109Z,3.78
2017-12-30T09:24:34.549Z,3.72
2017-12-30T09:25:33.776Z,3.77
2017-12-30T09:27:25.654Z,3.78
2017-12-30T09:28:25.654Z,3.77
2017-12-30T09:30:17.525Z,3.78
2017-12-30T09:31:17.330Z,3.78
2017-12-30T09:33:09.283Z,3.78
2017-12-30T09:34:09.122Z,3.80
2017-12-30T09:36:00.932Z,3.77
2017-12-30T09:37:00.777Z,3.78
2017-12-30T09:38:52.596Z,3.86
2017-12-30T09:39:52.510Z,3.78
2017-12-30T09:41:44.322Z,3.82
2017-12-30T09:42:44.228Z,3.88
2017-12-30T09:44:35.994Z,3.84
2017-12-30T09:45:35.927Z,3.89
2017-12-30T09:47:27.782Z,3.81
2017-12-30T09:48:27.584Z,3.90
2017-12-30T09:50:19.473Z,3.86
2017-12-30T09:51:19.414Z,3.90
2017-12-30T09:53:11.206Z,3.96
2017-12-30T09:54:11.127Z,3.96
2017-12-30T09:56:02.885Z,3.93
2017-12-30T09:57:02.800Z,4.04
2017-12-30T09:58:54.557Z,4.06
2017-12-30T09:59:54.484Z,4.04
2017-12-30T10:01:46.260Z,4.06
2017-12-30T10:02:46.204Z,3.98
2017-12-30T10:04:37.944Z,4.08
2017-12-30T10:05:37.880Z,4.04
2017-12-30T10:07:29.789Z,4.17
2017-12-30T10:08:29.668Z,4.06
2017-12-30T10:10:21.619Z,4.16
2017-12-30T10:11:21.473Z,4.25
2017-12-30T10:13:13.380Z,4.20
2017-12-30T10:14:13.260Z,4.28
2017-12-30T10:16:05.024Z,4.29
2017-12-30T10:17:04.973Z,4.34
2017-12-30T10:18:56.650Z,4.32
2017-12-30T10:19:56.600Z,4.38
2017-12-30T10:21:48.378Z,4.31
2017-12-30T10:22:48.272Z,4.36
2017-12-30T10:24:40.074Z,4.43
2017-12-30T10:25:40.014Z,4.50
2017-12-30T10:27:31.790Z,4.44
2017-12-30T10:28:31.655Z,4.49
2017-12-30T10:30:23.492Z,4.47
2017-12-30T10:31:23.355Z,4.47
2017-12-30T10:33:15.149Z,4.51
2017-12-30T10:34:15.125Z,4.47
2017-12-30T10:36:06.861Z,4.51
2017-12-30T10:37:06.749Z,4.49
2017-12-30T10:39:00.165Z,4.47
2017-12-30T10:39:58.485Z,4.57
2017-12-30T10:41:50.275Z,4.49
2017-12-30T10:42:50.300Z,4.54
2017-12-30T10:44:41.962Z,4.57
2017-12-30T10:45:41.916Z,4.53
2017-12-30T10:47:33.791Z,4.51
2017-12-30T10:48:33.616Z,4.54
2017-12-30T10:50:25.385Z,4.50
2017-12-30T10:51:25.275Z,4.50
2017-12-30T10:53:17.194Z,4.50
2017-12-30T10:54:17.146Z,4.50
2017-12-30T10:56:09.533Z,4.54
2017-12-30T10:57:08.814Z,4.51
2017-12-30T10:59:00.562Z,4.54
2017-12-30T11:00:00.522Z,4.54
2017-12-30T11:01:52.224Z,4.36
2017-12-30T11:02:52.176Z,4.49
2017-12-30T11:04:43.971Z,4.50
2017-12-30T11:05:43.884Z,4.46
2017-12-30T11:07:35.659Z,4.47
2017-12-30T11:08:35.590Z,4.46
2017-12-30T11:10:27.509Z,4.50
2017-12-30T11:11:27.398Z,4.47
2017-12-30T11:13:19.336Z,4.47
2017-12-30T11:14:19.136Z,4.51
2017-12-30T11:16:10.866Z,4.49
2017-12-30T11:17:10.863Z,4.42
2017-12-30T11:19:02.577Z,4.44
2017-12-30T11:20:02.481Z,4.46
2017-12-30T11:21:54.244Z,4.49
2017-12-30T11:22:54.168Z,4.43
2017-12-30T11:24:45.967Z,4.47
2017-12-30T11:25:45.859Z,4.50
2017-12-30T11:27:37.590Z,4.42
2017-12-30T11:28:37.520Z,4.56
2017-12-30T11:30:29.303Z,4.47
2017-12-30T11:31:29.203Z,4.54
2017-12-30T11:33:21.076Z,4.54
2017-12-30T11:34:20.989Z,4.51
2017-12-30T11:36:12.943Z,4.50
2017-12-30T11:37:12.664Z,4.53
2017-12-30T11:39:04.400Z,4.57
2017-12-30T11:40:04.341Z,4.53
2017-12-30T11:41:56.158Z,4.56
2017-12-30T11:42:56.043Z,4.51
2017-12-30T11:44:47.876Z,4.54
2017-12-30T11:45:47.820Z,4.53
2017-12-30T11:47:39.522Z,4.59
2017-12-30T11:48:39.460Z,4.61
2017-12-30T11:50:31.352Z,4.65
2017-12-30T11:51:31.207Z,4.67
2017-12-30T11:53:23.028Z,4.59
2017-12-30T11:54:22.982Z,4.71
2017-12-30T11:56:14.804Z,4.68
2017-12-30T11:57:14.725Z,4.68
2017-12-30T11:59:07.118Z,4.80
2017-12-30T12:00:06.490Z,4.86
2017-12-30T12:01:58.360Z,4.94
2017-12-30T12:02:58.222Z,4.91
2017-12-30T12:04:50.148Z,5.06
2017-12-30T12:05:49.970Z,5.04
2017-12-30T12:07:41.709Z,5.08
2017-12-30T12:08:41.674Z,4.96
2017-12-30T12:10:33.496Z,4.99
2017-12-30T12:11:33.423Z,5.02
2017-12-30T12:13:25.158Z,5.02
2017-12-30T12:14:25.101Z,4.93
2017-12-30T12:16:17.024Z,4.90
2017-12-30T12:17:16.779Z,4.94
2017-12-30T12:19:08.506Z,4.90
2017-12-30T12:20:08.456Z,4.96
2017-12-30T12:22:00.336Z,5.06
2017-12-30T12:23:00.119Z,5.02
2017-12-30T12:24:51.848Z,4.90
2017-12-30T12:25:51.839Z,4.90
2017-12-30T12:27:43.664Z,4.88
2017-12-30T12:28:43.617Z,4.86
2017-12-30T12:30:35.329Z,4.87
2017-12-30T12:31:35.333Z,4.88
2017-12-30T12:33:27.140Z,4.87
2017-12-30T12:34:27.078Z,4.83
2017-12-30T12:36:18.810Z,4.87
2017-12-30T12:37:18.790Z,4.83
2017-12-30T12:39:10.588Z,4.87
2017-12-30T12:40:10.513Z,4.88
2017-12-30T12:42:02.257Z,4.90
2017-12-30T12:43:02.229Z,4.83
2017-12-30T12:44:54.106Z,4.91
2017-12-30T12:45:53.856Z,4.86
2017-12-30T12:47:45.779Z,4.93
2017-12-30T12:48:45.598Z,4.93
2017-12-30T12:50:37.415Z,4.86
2017-12-30T12:51:37.345Z,4.83
2017-12-30T12:53:29.132Z,4.87
2017-12-30T12:54:29.071Z,4.88
2017-12-30T12:56:20.769Z,4.84
2017-12-30T12:57:20.768Z,4.88
2017-12-30T12:59:12.472Z,4.84
2017-12-30T13:00:12.388Z,4.90
2017-12-30T13:02:04.264Z,4.86
2017-12-30T13:03:04.042Z,4.88
2017-12-30T13:04:55.856Z,4.99
2017-12-30T13:05:55.790Z,4.96
2017-12-30T13:07:47.745Z,4.93
2017-12-30T13:08:47.547Z,4.97
2017-12-30T13:10:39.296Z,5.09
2017-12-30T13:11:39.189Z,5.11
2017-12-30T13:13:30.979Z,5.08
2017-12-30T13:14:30.908Z,5.09
2017-12-30T13:16:22.721Z,5.12
2017-12-30T13:17:22.579Z,5.12
2017-12-30T13:19:14.362Z,5.17
2017-12-30T13:20:14.254Z,5.19
2017-12-30T13:22:06.007Z,5.19
2017-12-30T13:23:05.995Z,5.17
2017-12-30T13:24:57.811Z,5.22
2017-12-30T13:25:57.791Z,5.19
2017-12-30T13:27:49.493Z,5.23
2017-12-30T13:28:49.373Z,5.17
2017-12-30T13:30:41.329Z,5.14
2017-12-30T13:31:41.175Z,5.11
2017-12-30T13:33:32.902Z,5.20
2017-12-30T13:34:32.823Z,5.14
2017-12-30T13:36:24.579Z,5.14
2017-12-30T13:37:24.546Z,5.20
2017-12-30T13:39:16.331Z,5.01
2017-12-30T13:40:16.265Z,5.05
2017-12-30T13:42:08.126Z,5.11
2017-12-30T13:43:08.003Z,5.20
2017-12-30T13:44:59.739Z,5.23
2017-12-30T13:45:59.669Z,5.33
2017-12-30T13:47:51.622Z,5.33
2017-12-30T13:48:51.422Z,5.27
2017-12-30T13:50:43.181Z,5.35
2017-12-30T13:51:43.083Z,5.26
2017-12-30T13:53:34.935Z,5.11
2017-12-30T13:54:34.839Z,5.14
2017-12-30T13:56:26.768Z,5.17
2017-12-30T13:57:26.545Z,5.06
2017-12-30T13:59:18.357Z,5.08
2017-12-30T14:00:18.286Z,5.06
2017-12-30T14:02:11.660Z,5.04
2017-12-30T14:03:10.048Z,5.05
2017-12-30T14:05:01.866Z,5.06
2017-12-30T14:06:01.676Z,5.05
2017-12-30T14:07:53.514Z,5.05
2017-12-30T14:08:53.408Z,5.08
2017-12-30T14:10:45.208Z,5.05
2017-12-30T14:11:45.104Z,5.06
2017-12-30T14:13:36.913Z,5.08
2017-12-30T14:14:36.853Z,5.02
2017-12-30T14:16:28.574Z,5.04
2017-12-30T14:17:28.500Z,5.08
2017-12-30T14:19:20.425Z,5.05
2017-12-30T14:20:20.305Z,5.04
2017-12-30T14:22:12.084Z,5.20
2017-12-30T14:23:12.004Z,5.04
2017-12-30T14:25:03.684Z,5.06
2017-12-30T14:26:03.613Z,5.01
2017-12-30T14:27:55.386Z,5.05
2017-12-30T14:28:55.292Z,4.93
2017-12-30T14:30:47.159Z,4.79
2017-12-30T14:31:47.078Z,4.72
2017-12-30T14:33:38.943Z,4.57
2017-12-30T14:34:38.876Z,4.56
2017-12-30T14:36:30.665Z,4.49
2017-12-30T14:37:30.565Z,4.54
2017-12-30T14:39:22.318Z,4.35
2017-12-30T14:40:22.239Z,4.38
2017-12-30T14:42:13.993Z,4.31
2017-12-30T14:43:13.973Z,4.34
2017-12-30T14:45:05.837Z,4.26
2017-12-30T14:46:05.724Z,4.20
2017-12-30T14:47:57.547Z,4.21
2017-12-30T14:48:57.502Z,4.17
2017-12-30T14:50:49.318Z,4.16
2017-12-30T14:51:49.265Z,4.11
2017-12-30T14:53:41.157Z,4.08
2017-12-30T14:54:41.086Z,4.02
2017-12-30T14:56:32.863Z,4.07
2017-12-30T14:57:32.828Z,3.95
2017-12-30T14:59:24.616Z,3.81
2017-12-30T15:00:24.474Z,3.89
2017-12-30T15:02:16.316Z,3.88
2017-12-30T15:03:16.279Z,3.88
2017-12-30T15:05:08.035Z,3.81
2017-12-30T15:06:07.959Z,3.82
2017-12-30T15:07:59.753Z,3.74
2017-12-30T15:08:59.644Z,3.78
2017-12-30T15:10:51.465Z,3.80
2017-12-30T15:11:51.379Z,3.77
2017-12-30T15:13:43.115Z,3.77
2017-12-30T15:14:43.054Z,3.82
2017-12-30T15:16:34.905Z,3.81
2017-12-30T15:17:34.840Z,3.78
2017-12-30T15:19:26.568Z,3.63
2017-12-30T15:20:26.533Z,3.70
2017-12-30T15:22:18.307Z,3.68
2017-12-30T15:23:18.251Z,3.67
2017-12-30T15:25:10.015Z,3.67
2017-12-30T15:26:09.930Z,3.63
2017-12-30T15:28:01.711Z,3.68
2017-12-30T15:29:01.649Z,3.63
2017-12-30T15:30:53.377Z,3.62
2017-12-30T15:31:53.298Z,3.59
2017-12-30T15:33:45.032Z,3.53
2017-12-30T15:34:45.011Z,3.50
2017-12-30T15:36:36.771Z,3.42
2017-12-30T15:37:36.734Z,3.45
2017-12-30T15:39:28.479Z,3.50
2017-12-30T15:40:28.394Z,3.45
2017-12-30T15:42:20.244Z,3.54
2017-12-30T15:43:20.175Z,3.44
2017-12-30T15:45:12.053Z,3.44
2017-12-30T15:46:11.884Z,3.45
2017-12-30T15:48:03.724Z,3.39
2017-12-30T15:49:03.647Z,3.35
2017-12-30T15:50:55.601Z,3.44
2017-12-30T15:51:55.354Z,3.37
2017-12-30T15:53:47.273Z,3.42
2017-12-30T15:54:47.143Z,3.41
2017-12-30T15:56:38.912Z,3.52
2017-12-30T15:57:38.825Z,3.39
2017-12-30T15:59:30.635Z,3.53
2017-12-30T16:00:30.569Z,3.57
2017-12-30T16:02:22.380Z,3.42
2017-12-30T16:03:22.251Z,3.49
2017-12-30T16:05:14.173Z,3.50
2017-12-30T16:06:14.056Z,3.56
2017-12-30T16:08:05.929Z,3.60
2017-12-30T16:09:05.847Z,3.60
2017-12-30T16:10:57.672Z,3.60
2017-12-30T16:11:57.587Z,3.62
2017-12-30T16:13:49.396Z,3.72
2017-12-30T16:14:49.306Z,3.68
2017-12-30T16:16:41.068Z,3.70
2017-12-30T16:17:40.974Z,3.63
2017-12-30T16:19:32.741Z,3.70
2017-12-30T16:20:32.686Z,3.68
2017-12-30T16:22:24.481Z,3.72
2017-12-30T16:23:24.466Z,3.77
2017-12-30T16:25:16.155Z,3.80
2017-12-30T16:26:16.074Z,3.75
2017-12-30T16:28:07.955Z,3.78
2017-12-30T16:29:07.790Z,3.80
2017-12-30T16:30:59.580Z,3.84
2017-12-30T16:31:59.510Z,3.86
2017-12-30T16:33:51.332Z,3.89
2017-12-30T16:34:51.228Z,3.88
2017-12-30T16:36:43.023Z,3.82
2017-12-30T16:37:42.991Z,3.88
2017-12-30T16:39:34.850Z,3.88
2017-12-30T16:40:34.730Z,3.84
2017-12-30T16:42:26.492Z,3.84
2017-12-30T16:43:26.421Z,3.84
2017-12-30T16:45:18.331Z,3.92
2017-12-30T16:46:18.173Z,3.99
2017-12-30T16:48:10.005Z,3.96
2017-12-30T16:49:09.906Z,3.96
2017-12-30T16:51:01.733Z,3.96
2017-12-30T16:52:01.633Z,3.99
2017-12-30T16:53:54.068Z,4.04
2017-12-30T16:54:53.547Z,4.07
2017-12-30T16:56:45.289Z,4.02
2017-12-30T16:57:45.257Z,4.08
2017-12-30T16:59:36.974Z,4.07
2017-12-30T17:00:36.894Z,4.08
2017-12-30T17:02:28.706Z,4.08
2017-12-30T17:03:28.626Z,4.04
2017-12-30T17:05:20.360Z,4.11
2017-12-30T17:06:20.270Z,4.10
2017-12-30T17:08:12.008Z,4.10
2017-12-30T17:09:11.945Z,4.14
2017-12-30T17:11:03.745Z,4.20
2017-12-30T17:12:03.680Z,4.17
2017-12-30T17:13:55.409Z,4.18
2017-12-30T17:14:55.353Z,4.20
2017-12-30T17:16:47.096Z,4.32
2017-12-30T17:17:47.029Z,4.26
2017-12-30T17:19:38.793Z,4.32
2017-12-30T17:20:38.694Z,4.35
2017-12-30T17:22:30.536Z,4.47
2017-12-30T17:23:30.398Z,4.35
2017-12-30T17:25:22.175Z,4.34
2017-12-30T17:26:22.094Z,4.31
2017-12-30T17:28:13.853Z,4.36
2017-12-30T17:29:13.765Z,4.36
2017-12-30T17:31:05.564Z,4.44
2017-12-30T17:32:05.477Z,4.47
2017-12-30T17:33:57.255Z,4.53
2017-12-30T17:34:57.149Z,4.46
2017-12-30T17:36:48.911Z,4.53
2017-12-30T17:37:48.833Z,4.57
2017-12-30T17:39:40.576Z,4.61
2017-12-30T17:40:40.513Z,4.56
2017-12-30T17:42:32.276Z,4.67
2017-12-30T17:43:32.191Z,4.64
2017-12-30T17:45:23.946Z,4.61
2017-12-30T17:46:23.862Z,4.61
2017-12-30T17:48:15.616Z,4.69
2017-12-30T17:49:15.555Z,4.68
2017-12-30T17:51:07.336Z,4.83
2017-12-30T17:52:07.259Z,4.71
2017-12-30T17:53:59.003Z,4.77
2017-12-30T17:54:58.952Z,4.79
2017-12-30T17:56:50.748Z,4.80
2017-12-30T17:57:50.772Z,4.80
2017-12-30T17:59:42.454Z,4.88
2017-12-30T18:00:42.391Z,4.87
2017-12-30T18:02:34.161Z,4.94
2017-12-30T18:03:34.072Z,4.88
2017-12-30T18:05:25.863Z,4.90
2017-12-30T18:06:25.793Z,4.93
2017-12-30T18:08:17.543Z,4.99
2017-12-30T18:09:17.461Z,5.05
2017-12-30T18:11:09.228Z,5.05
2017-12-30T18:12:09.143Z,5.12
2017-12-30T18:14:00.922Z,5.05
2017-12-30T18:15:00.826Z,5.12
2017-12-30T18:16:52.639Z,5.06
2017-12-30T18:17:52.575Z,5.14
2017-12-30T18:19:44.312Z,5.15
2017-12-30T18:20:44.246Z,5.06
2017-12-30T18:22:36.012Z,5.22
2017-12-30T18:23:35.929Z,5.22
2017-12-30T18:25:27.726Z,5.23
2017-12-30T18:26:27.611Z,5.20
2017-12-30T18:28:19.428Z,5.27
2017-12-30T18:29:19.341Z,5.23
2017-12-30T18:31:11.087Z,5.35
2017-12-30T18:32:11.021Z,5.37
2017-12-30T18:34:02.770Z,5.40
2017-12-30T18:35:02.696Z,5.47
2017-12-30T18:36:54.475Z,5.45
2017-12-30T18:37:54.416Z,5.51
2017-12-30T18:39:46.150Z,5.55
2017-12-30T18:40:46.078Z,5.55
2017-12-30T18:42:37.842Z,5.58
2017-12-30T18:43:37.760Z,5.52
2017-12-30T18:45:29.503Z,5.62
2017-12-30T18:46:29.443Z,5.65
2017-12-30T18:48:21.232Z,5.69
2017-12-30T18:49:21.140Z,5.58
2017-12-30T18:51:12.877Z,5.59
2017-12-30T18:52:12.809Z,5.60
2017-12-30T18:54:04.642Z,5.62
2017-12-30T18:55:04.584Z,5.74
2017-12-30T18:56:56.349Z,5.73
2017-12-30T18:57:56.266Z,5.73
2017-12-30T18:59:48.081Z,5.75
2017-12-30T19:00:48.005Z,5.78
2017-12-30T19:02:39.717Z,5.87